Time;durP1;ratioP1;P1;durP2;ratioP2;P2;SDS_P1;SDS_P2;PMS_P1;PMS_P2;Temp;Humidity;BMP_temperature;BMP_pressure;BME280_temperature;BME280_humidity;BME280_pressure;Samples;Min_cycle;Max_cycle;Signal;HPM_P1;HPM_P2
2023/01/06 00:00:25;;;;;;;2.93;2.73;;;12.30;57.20;;;;;;20703;6851;118465;-70
2023/01/06 00:02:51;;;;;;;3.77;2.90;;;12.10;58.10;;;;;;20492;6851;314205;-71
2023/01/06 00:05:17;;;;;;;3.28;3.08;;;12.10;58.00;;;;;;20491;6851;294688;-71
2023/01/06 00:07:43;;;;;;;3.10;2.90;;;12.30;57.50;;;;;;20483;6851;311051;-71
2023/01/06 00:10:08;;;;;;;2.90;2.70;;;12.50;56.80;;;;;;20683;6851;117647;-70
2023/01/06 00:12:34;;;;;;;3.60;3.20;;;12.40;56.70;;;;;;20485;6851;307813;-70
2023/01/06 00:14:59;;;;;;;2.92;2.83;;;12.40;57.00;;;;;;20704;6851;117630;-71
2023/01/06 00:17:25;;;;;;;2.93;2.73;;;12.20;57.00;;;;;;20688;6851;120805;-71
2023/01/06 00:19:51;;;;;;;2.90;2.70;;;12.00;57.60;;;;;;20686;6852;118402;-71
2023/01/06 00:22:16;;;;;;;3.10;2.90;;;11.70;58.10;;;;;;20499;6852;284760;-71
2023/01/06 00:24:42;;;;;;;3.40;3.20;;;11.90;58.40;;;;;;20481;6852;307887;-71
2023/01/06 00:27:07;;;;;;;3.40;3.20;;;12.20;57.90;;;;;;20495;6852;307127;-70
2023/01/06 00:29:33;;;;;;;3.10;3.00;;;12.40;57.10;;;;;;20480;6852;300873;-71
2023/01/06 00:31:59;;;;;;;3.17;2.97;;;12.60;56.50;;;;;;20680;6852;118403;-70
2023/01/06 00:34:25;;;;;;;3.30;3.00;;;12.40;56.40;;;;;;20480;6852;318610;-71
2023/01/06 00:36:50;;;;;;;3.58;3.37;;;12.40;56.30;;;;;;20483;6852;307570;-71
2023/01/06 00:39:16;;;;;;;3.10;3.00;;;12.50;55.90;;;;;;20701;6852;117664;-71
2023/01/06 00:44:27;;;;;;;3.00;2.90;;;12.30;56.40;;;;;;20700;6852;117738;-70
2023/01/06 00:46:53;;;;;;;3.13;2.93;;;12.10;56.50;;;;;;20489;6852;337401;-71
2023/01/06 00:49:18;;;;;;;3.23;3.03;;;12.00;56.70;;;;;;20491;6852;277896;-71
2023/01/06 00:51:44;;;;;;;2.93;2.70;;;12.20;56.40;;;;;;20485;6852;312646;-71
2023/01/06 00:54:09;;;;;;;2.70;2.60;;;12.40;56.10;;;;;;20467;6852;278333;-71
2023/01/06 00:56:38;;;;;;;2.60;2.50;;;12.50;55.80;;;;;;20478;6852;307289;-71
2023/01/06 00:59:03;;;;;;;2.53;2.43;;;12.60;55.60;;;;;;20477;6852;328403;-71
2023/01/06 01:01:30;;;;;;;3.13;2.97;;;12.80;55.80;;;;;;20478;6852;308182;-71
2023/01/06 01:03:55;;;;;;;3.70;3.50;;;12.80;55.50;;;;;;20673;6852;117737;-71
2023/01/06 01:06:21;;;;;;;3.50;3.30;;;12.40;56.10;;;;;;20466;6852;310591;-71
2023/01/06 01:08:47;;;;;;;3.87;3.58;;;12.40;56.10;;;;;;20485;6850;307520;-71
2023/01/06 01:12:08;;;;;;;3.70;3.40;;;12.50;56.00;;;;;;20603;6851;121649;-71
2023/01/06 01:13:38;;;;;;;3.83;3.60;;;12.30;56.10;;;;;;20409;6851;299573;-71
2023/01/06 01:16:07;;;;;;;4.23;3.93;;;12.30;56.40;;;;;;20478;6851;283134;-71
2023/01/06 01:18:33;;;;;;;3.60;3.40;;;12.40;56.20;;;;;;20480;6851;313822;-69
2023/01/06 01:20:58;;;;;;;3.60;3.40;;;12.50;56.10;;;;;;20498;6851;285014;-70
2023/01/06 01:23:24;;;;;;;3.73;3.53;;;12.60;56.00;;;;;;20497;6851;278367;-70
2023/01/06 01:25:49;;;;;;;3.53;3.30;;;12.70;55.80;;;;;;20682;6851;118806;-69
2023/01/06 01:28:15;;;;;;;3.57;3.30;;;12.50;56.00;;;;;;20678;6851;117271;-70
2023/01/06 01:30:40;;;;;;;3.90;3.70;;;12.10;56.60;;;;;;20479;6852;312056;-70
2023/01/06 01:33:07;;;;;;;3.70;3.40;;;12.00;57.00;;;;;;20698;6852;117733;-70
2023/01/06 01:35:32;;;;;;;3.10;3.00;;;12.00;57.00;;;;;;20487;6852;337717;-70
2023/01/06 01:37:58;;;;;;;2.73;2.60;;;12.00;57.20;;;;;;20467;6852;278626;-70
2023/01/06 01:40:23;;;;;;;3.00;2.70;;;12.20;56.90;;;;;;20490;6852;278342;-70
2023/01/06 01:42:49;;;;;;;2.90;2.70;;;12.50;56.60;;;;;;20694;6852;118830;-70
2023/01/06 01:45:21;;;;;;;2.67;2.47;;;12.30;56.40;;;;;;20481;6852;337292;-70
2023/01/06 01:47:47;;;;;;;1.77;1.67;;;12.30;56.70;;;;;;20675;6852;118578;-73
2023/01/06 01:50:16;;;;;;;1.80;1.70;;;12.10;56.80;;;;;;20694;6852;117769;-70
2023/01/06 01:52:41;;;;;;;1.98;1.87;;;11.90;57.40;;;;;;20467;6852;337865;-68
2023/01/06 01:55:07;;;;;;;1.67;1.63;;;12.00;57.60;;;;;;20692;6852;117779;-70
2023/01/06 01:57:34;;;;;;;1.60;1.60;;;11.90;57.50;;;;;;20705;6852;122585;-69
2023/01/06 02:00:00;;;;;;;1.67;1.57;;;11.70;57.70;;;;;;20665;6852;118589;-70
2023/01/06 02:02:25;;;;;;;1.83;1.73;;;11.60;58.10;;;;;;20471;6852;333456;-70
2023/01/06 02:04:51;;;;;;;1.80;1.70;;;11.70;58.80;;;;;;20685;6852;117291;-70
2023/01/06 02:07:17;;;;;;;1.73;1.63;;;11.70;58.10;;;;;;20688;6852;118469;-69
2023/01/06 02:09:59;;;;;;;2.35;2.17;;;11.60;58.20;;;;;;20485;6852;279027;-70
2023/01/06 02:12:24;;;;;;;2.00;1.90;;;11.80;58.30;;;;;;20695;6852;117396;-69
2023/01/06 02:14:50;;;;;;;2.10;2.00;;;11.80;58.00;;;;;;20476;6852;278766;-70
2023/01/06 02:17:35;;;;;;;2.50;2.40;;;11.90;57.90;;;;;;20694;6852;117801;-70
2023/01/06 02:20:20;;;;;;;2.33;2.20;;;11.90;57.70;;;;;;20671;6852;117816;-70
2023/01/06 02:23:12;;;;;;;2.87;2.67;;;11.70;58.00;;;;;;20693;6850;118070;-69
2023/01/06 02:25:47;;;;;;;3.10;2.90;;;11.40;58.30;;;;;;20484;6851;278830;-70
2023/01/06 02:28:26;;;;;;;3.03;2.83;;;11.70;58.60;;;;;;20482;6851;302349;-70
2023/01/06 02:31:25;;;;;;;2.97;2.80;;;12.00;58.00;;;;;;20668;6851;117214;-71
2023/01/06 02:34:10;;;;;;;3.25;3.05;;;11.90;57.60;;;;;;20469;6851;309924;-69
2023/01/06 02:36:49;;;;;;;3.00;2.80;;;12.00;57.60;;;;;;20499;6851;278540;-71
2023/01/06 02:39:31;;;;;;;2.67;2.57;;;12.30;57.20;;;;;;20668;6851;117242;-70
2023/01/06 02:42:04;;;;;;;3.35;3.12;;;12.10;57.00;;;;;;19647;6841;309775;-70
2023/01/06 02:44:45;;;;;;;3.33;3.10;;;12.20;57.40;;;;;;20440;6841;308682;-70
2023/01/06 02:47:18;;;;;;;3.15;2.95;;;12.30;56.90;;;;;;19925;6855;307667;-70
2023/01/06 02:50:16;;;;;;;3.47;3.20;;;12.50;56.60;;;;;;19843;6855;338736;-70
2023/01/06 02:52:45;;;;;;;3.43;3.23;;;12.60;56.10;;;;;;20464;6855;308303;-69
2023/01/06 02:55:34;;;;;;;3.20;3.08;;;12.70;55.80;;;;;;20472;6841;282900;-70
2023/01/06 02:58:16;;;;;;;4.80;2.80;;;12.80;55.70;;;;;;20697;6841;119116;-70
2023/01/06 03:00:42;;;;;;;3.50;3.30;;;12.50;55.90;;;;;;20494;6841;312370;-70
2023/01/06 03:03:11;;;;;;;3.50;3.20;;;12.40;56.30;;;;;;20500;6841;307310;-70
2023/01/06 03:05:36;;;;;;;3.40;3.20;;;12.50;56.20;;;;;;20479;6841;282229;-71
2023/01/06 03:08:02;;;;;;;3.30;3.10;;;12.60;56.00;;;;;;20487;6841;282082;-70
2023/01/06 03:10:28;;;;;;;3.00;2.80;;;12.40;55.80;;;;;;20673;6840;118495;-70
2023/01/06 03:13:20;;;;;;;2.90;2.80;;;12.40;55.80;;;;;;20724;6840;117355;-70
2023/01/06 03:15:46;;;;;;;3.00;2.80;;;12.00;56.30;;;;;;20424;6840;278504;-71
2023/01/06 03:18:12;;;;;;;3.30;3.00;;;12.00;56.80;;;;;;20708;6840;117846;-71
2023/01/06 03:20:37;;;;;;;3.25;3.05;;;11.90;56.80;;;;;;20511;6840;341615;-71
2023/01/06 03:23:03;;;;;;;3.30;3.00;;;11.90;57.10;;;;;;20726;6840;118301;-70
2023/01/06 03:25:28;;;;;;;3.17;2.97;;;11.80;57.10;;;;;;20518;6840;339359;-71
2023/01/06 03:27:54;;;;;;;3.40;3.10;;;11.80;57.30;;;;;;20705;6840;119617;-71
2023/01/06 03:30:19;;;;;;;2.93;2.73;;;11.80;57.30;;;;;;20723;6840;118593;-70
2023/01/06 03:32:48;;;;;;;3.40;3.20;;;11.50;57.60;;;;;;20524;6838;336466;-70
2023/01/06 03:35:16;;;;;;;3.20;3.00;;;11.60;57.80;;;;;;20506;6839;307342;-70
2023/01/06 03:38:21;;;;;;;3.37;3.17;;;11.80;57.20;;;;;;20505;6840;337569;-70
2023/01/06 03:40:53;;;;;;;3.10;2.83;;;12.00;56.60;;;;;;19705;7181;119787;-70
2023/01/06 03:43:29;;;;;;;3.43;3.13;;;11.60;56.50;;;;;;19692;7181;119383;-71
2023/01/06 03:46:28;;;;;;;24.07;18.10;;;11.20;57.10;;;;;;19837;6840;123939;-71
2023/01/06 03:48:56;;;;;;;8.80;8.10;;;10.90;57.70;;;;;;20521;6840;311706;-71
2023/01/06 03:51:41;;;;;;;3.17;2.87;;;11.00;57.70;;;;;;20582;6840;118290;-70
2023/01/06 03:54:37;;;;;;;2.60;2.40;;;11.00;57.60;;;;;;20698;6840;117689;-70
2023/01/06 03:57:02;;;;;;;2.78;2.58;;;10.70;58.00;;;;;;20501;6840;337913;-70
2023/01/06 03:59:28;;;;;;;2.40;2.00;;;10.80;58.70;;;;;;20510;6840;341796;-71
2023/01/06 04:01:54;;;;;;;2.05;1.95;;;11.00;58.10;;;;;;20697;6840;118561;-69
2023/01/06 04:04:20;;;;;;;2.10;1.90;;;11.00;58.10;;;;;;20724;6840;117579;-70
2023/01/06 04:06:45;;;;;;;2.60;2.40;;;10.70;58.40;;;;;;20515;6840;312238;-70
2023/01/06 04:09:11;;;;;;;2.47;2.00;;;10.80;59.10;;;;;;20729;6840;118879;-71
2023/01/06 04:14:22;;;;;;;2.43;2.23;;;10.50;59.10;;;;;;20522;6840;278234;-71
2023/01/06 04:16:48;;;;;;;2.23;2.13;;;10.70;60.00;;;;;;20725;6840;117615;-69
2023/01/06 04:19:14;;;;;;;2.60;2.50;;;10.70;59.50;;;;;;20523;6840;279072;-71
2023/01/06 04:21:40;;;;;;;2.55;2.40;;;11.10;59.00;;;;;;20513;6840;312016;-70
2023/01/06 04:24:06;;;;;;;2.57;2.47;;;11.10;59.00;;;;;;20712;6840;120784;-70
2023/01/06 04:26:32;;;;;;;3.10;2.90;;;11.00;58.70;;;;;;20523;6840;277611;-70
2023/01/06 04:28:57;;;;;;;3.03;2.83;;;11.10;59.10;;;;;;20510;6840;336661;-71
2023/01/06 04:31:22;;;;;;;3.08;2.90;;;11.20;58.70;;;;;;20523;6840;278530;-70
2023/01/06 04:33:48;;;;;;;2.80;2.60;;;11.40;58.30;;;;;;20709;6840;126345;-70
2023/01/06 04:36:14;;;;;;;3.30;3.00;;;11.20;58.10;;;;;;20521;6840;307315;-71
2023/01/06 04:38:39;;;;;;;2.93;2.83;;;11.20;58.40;;;;;;20732;6840;117639;-71
2023/01/06 04:41:05;;;;;;;2.92;2.72;;;11.00;58.30;;;;;;20740;6840;117137;-70
2023/01/06 04:43:30;;;;;;;3.10;2.90;;;10.70;58.80;;;;;;20730;6840;118342;-70
2023/01/06 04:45:56;;;;;;;3.10;2.80;;;10.20;59.70;;;;;;20706;6838;120835;-70
2023/01/06 04:48:22;;;;;;;3.07;2.93;;;10.20;59.70;;;;;;20721;6840;119124;-70
2023/01/06 04:50:48;;;;;;;3.10;2.90;;;10.00;60.00;;;;;;20740;6840;118506;-70
2023/01/06 04:53:13;;;;;;;3.53;3.33;;;9.90;61.30;;;;;;20522;6840;334670;-69
2023/01/06 04:55:39;;;;;;;3.73;3.30;;;10.00;60.90;;;;;;20527;6840;278654;-70
2023/01/06 04:58:04;;;;;;;3.05;2.80;;;10.40;60.30;;;;;;20713;6840;117284;-71
2023/01/06 05:00:30;;;;;;;3.40;3.10;;;10.30;59.90;;;;;;20728;6840;118911;-69
2023/01/06 05:02:55;;;;;;;3.27;3.03;;;10.10;60.30;;;;;;20735;6840;117093;-69
2023/01/06 05:05:22;;;;;;;2.93;2.73;;;9.70;62.10;;;;;;20730;6840;117167;-70
2023/01/06 05:07:47;;;;;;;3.60;3.40;;;9.70;62.10;;;;;;20714;6840;117997;-73
2023/01/06 05:10:14;;;;;;;3.62;3.33;;;9.80;62.80;;;;;;20519;6840;311897;-69
2023/01/06 05:12:40;;;;;;;3.78;3.53;;;10.20;61.10;;;;;;20524;6840;311688;-70
2023/01/06 05:15:06;;;;;;;3.80;3.60;;;10.20;61.10;;;;;;20519;6840;277945;-70
2023/01/06 05:17:33;;;;;;;3.28;3.17;;;10.70;59.40;;;;;;20515;6840;308534;-71
2023/01/06 05:19:58;;;;;;;3.40;3.20;;;10.70;59.40;;;;;;20501;6840;285100;-70
2023/01/06 05:22:24;;;;;;;3.50;3.23;;;11.00;58.30;;;;;;20518;6840;280930;-71
2023/01/06 05:24:50;;;;;;;3.47;3.17;;;11.00;58.30;;;;;;20517;6840;312214;-70
2023/01/06 05:27:16;;;;;;;3.03;2.83;;;10.80;58.10;;;;;;20734;6840;117559;-70
2023/01/06 05:29:43;;;;;;;3.10;3.00;;;10.80;58.00;;;;;;20512;6840;315816;-71
2023/01/06 05:32:09;;;;;;;3.03;2.73;;;10.50;58.40;;;;;;20716;6840;120390;-70
2023/01/06 05:34:35;;;;;;;3.40;3.20;;;10.50;58.40;;;;;;20735;6840;123385;-70
2023/01/06 05:37:00;;;;;;;3.40;2.60;;;10.20;59.10;;;;;;20739;6840;121155;-71
2023/01/06 05:39:26;;;;;;;3.17;2.97;;;9.90;61.30;;;;;;20521;6840;307910;-70
2023/01/06 05:41:52;;;;;;;2.97;2.78;;;10.00;59.90;;;;;;20719;6840;118163;-70
2023/01/06 05:44:18;;;;;;;2.70;2.60;;;9.90;60.80;;;;;;20734;6840;118226;-70
2023/01/06 05:46:43;;;;;;;2.80;2.60;;;9.80;61.20;;;;;;20733;6840;116902;-71
2023/01/06 05:49:09;;;;;;;3.00;2.80;;;9.60;61.70;;;;;;20521;6840;294161;-71
2023/01/06 05:51:34;;;;;;;2.30;2.20;;;9.70;62.30;;;;;;20727;6840;117445;-70
2023/01/06 05:54:01;;;;;;;2.62;2.42;;;9.60;62.90;;;;;;20708;6840;118245;-70
2023/01/06 05:56:26;;;;;;;2.40;2.30;;;9.60;62.20;;;;;;20734;6839;119066;-71
2023/01/06 05:58:52;;;;;;;2.30;2.20;;;9.40;62.60;;;;;;20729;6840;117109;-71
2023/01/06 06:01:21;;;;;;;1.80;1.70;;;9.30;63.40;;;;;;20726;6840;118025;-69
2023/01/06 06:03:47;;;;;;;2.60;2.40;;;9.20;63.20;;;;;;20491;6840;312124;-73
2023/01/06 06:06:12;;;;;;;2.70;2.50;;;9.50;63.50;;;;;;20356;6840;281694;-70
2023/01/06 06:08:38;;;;;;;2.47;2.37;;;9.90;62.30;;;;;;20468;6840;308652;-72
2023/01/06 06:11:04;;;;;;;2.40;2.30;;;10.30;60.30;;;;;;20527;6840;311206;-72
2023/01/06 06:13:30;;;;;;;2.63;2.50;;;10.50;59.50;;;;;;20510;6840;280355;-72
2023/01/06 06:16:05;;;;;;;2.67;2.50;;;10.70;59.10;;;;;;20511;6840;304650;-71
2023/01/06 06:18:30;;;;;;;2.67;2.57;;;10.80;58.50;;;;;;20716;6840;117901;-72
2023/01/06 06:21:02;;;;;;;2.40;2.20;;;10.50;58.60;;;;;;20738;6840;117338;-72
2023/01/06 06:23:28;;;;;;;2.43;2.30;;;10.20;59.30;;;;;;20737;6840;117855;-71
2023/01/06 06:25:53;;;;;;;3.15;2.85;;;9.90;60.90;;;;;;20502;6840;280899;-69
2023/01/06 06:28:19;;;;;;;3.10;2.90;;;9.90;60.70;;;;;;20529;6840;308377;-70
2023/01/06 06:30:44;;;;;;;3.28;3.00;;;10.20;59.20;;;;;;20510;6840;344943;-69
2023/01/06 06:33:11;;;;;;;2.80;2.60;;;10.30;58.80;;;;;;20730;6840;117364;-69
2023/01/06 06:35:36;;;;;;;2.27;2.10;;;10.20;58.60;;;;;;20731;6840;117627;-70
2023/01/06 06:38:02;;;;;;;1.87;1.77;;;9.90;60.30;;;;;;20710;6840;118144;-69
2023/01/06 06:40:27;;;;;;;1.60;1.50;;;9.60;61.00;;;;;;20521;6840;292965;-68
2023/01/06 06:42:53;;;;;;;1.70;1.60;;;9.70;61.50;;;;;;20516;6840;309900;-70
2023/01/06 06:45:19;;;;;;;1.77;1.67;;;10.10;60.10;;;;;;20520;6840;307557;-69
2023/01/06 06:47:44;;;;;;;1.40;1.40;;;10.40;59.50;;;;;;20728;6840;117863;-69
2023/01/06 06:50:10;;;;;;;1.42;1.33;;;10.30;59.40;;;;;;20717;6840;121476;-70
2023/01/06 06:52:35;;;;;;;1.20;1.20;;;10.00;59.90;;;;;;20510;6840;341926;-69
2023/01/06 06:55:01;;;;;;;1.30;1.20;;;10.20;60.20;;;;;;20729;6840;118793;-69
2023/01/06 06:57:27;;;;;;;1.75;1.50;;;10.30;59.80;;;;;;20520;6840;346355;-69
2023/01/06 06:59:53;;;;;;;1.20;1.20;;;10.30;59.80;;;;;;20674;6840;118310;-71
2023/01/06 07:02:18;;;;;;;1.67;1.57;;;10.30;59.70;;;;;;20508;6840;308329;-69
2023/01/06 07:04:44;;;;;;;1.40;1.40;;;10.40;59.50;;;;;;20522;6840;282086;-71
2023/01/06 07:07:09;;;;;;;1.17;1.17;;;10.70;58.80;;;;;;20717;6838;121054;-70
2023/01/06 07:09:36;;;;;;;1.33;1.23;;;10.30;58.90;;;;;;20735;6839;120354;-70
2023/01/06 07:12:02;;;;;;;1.60;1.50;;;10.30;58.90;;;;;;20495;6840;307110;-73
2023/01/06 07:14:28;;;;;;;1.23;1.23;;;10.40;59.00;;;;;;20519;6840;325751;-72
2023/01/06 07:16:54;;;;;;;2.12;1.30;;;10.60;58.20;;;;;;20740;6840;117921;-73
2023/01/06 07:19:20;;;;;;;1.40;1.30;;;10.30;59.20;;;;;;20733;6840;118759;-71
2023/01/06 07:21:45;;;;;;;1.30;1.20;;;10.30;58.50;;;;;;20516;6840;311389;-71
2023/01/06 07:24:11;;;;;;;1.80;1.75;;;10.30;58.60;;;;;;20715;6840;118759;-72
2023/01/06 07:26:37;;;;;;;1.67;1.58;;;10.30;58.50;;;;;;20744;6840;118233;-73
2023/01/06 07:29:02;;;;;;;1.73;1.63;;;10.00;58.90;;;;;;20519;6840;307125;-73
2023/01/06 07:31:28;;;;;;;1.40;1.30;;;10.50;59.00;;;;;;20522;6840;311966;-73
2023/01/06 07:33:54;;;;;;;1.30;1.30;;;10.50;59.00;;;;;;20714;6840;117856;-73
2023/01/06 07:36:21;;;;;;;0.95;0.95;;;10.50;58.70;;;;;;20727;6840;118930;-73
2023/01/06 07:38:46;;;;;;;1.05;1.05;;;10.30;59.20;;;;;;20515;6840;308452;-72
2023/01/06 07:41:12;;;;;;;1.10;1.10;;;10.50;59.30;;;;;;20529;6840;289841;-73
2023/01/06 07:43:38;;;;;;;1.80;1.30;;;10.80;58.60;;;;;;20731;6840;117188;-73
2023/01/06 07:46:03;;;;;;;2.10;2.00;;;10.80;58.30;;;;;;20686;6840;118127;-74
2023/01/06 07:48:29;;;;;;;2.80;2.60;;;10.60;58.30;;;;;;20480;6840;340130;-74
2023/01/06 07:50:54;;;;;;;2.75;2.65;;;10.70;57.20;;;;;;20521;6840;281327;-73
2023/01/06 07:53:21;;;;;;;2.80;2.60;;;11.10;55.80;;;;;;20512;6840;278544;-72
2023/01/06 07:55:50;;;;;;;3.00;2.80;;;11.10;55.70;;;;;;20520;6840;283024;-73
2023/01/06 07:58:16;;;;;;;2.27;2.17;;;11.20;55.40;;;;;;20675;6840;117701;-74
2023/01/06 08:00:41;;;;;;;2.25;2.15;;;11.00;55.60;;;;;;20527;6840;311359;-74
2023/01/06 08:03:07;;;;;;;2.33;2.20;;;11.00;56.10;;;;;;20516;6840;311636;-74
2023/01/06 08:05:32;;;;;;;2.33;2.22;;;11.10;55.80;;;;;;20509;6840;337136;-74
2023/01/06 08:07:58;;;;;;;2.20;2.10;;;11.30;55.70;;;;;;20495;6840;307969;-74
2023/01/06 08:10:23;;;;;;;2.43;2.33;;;11.40;55.50;;;;;;20728;6840;117367;-74
2023/01/06 08:12:48;;;;;;;3.33;3.12;;;11.20;55.80;;;;;;20521;6840;337107;-72
2023/01/06 08:15:14;;;;;;;3.60;3.30;;;11.20;56.10;;;;;;20720;6840;118361;-72
2023/01/06 08:17:40;;;;;;;5.03;4.63;;;11.10;56.20;;;;;;20505;6840;315774;-72
2023/01/06 08:20:06;;;;;;;3.30;3.10;;;11.20;56.40;;;;;;20470;6838;307567;-72
2023/01/06 08:22:31;;;;;;;3.30;3.10;;;11.40;56.00;;;;;;20501;6840;308233;-72
2023/01/06 08:24:57;;;;;;;5.47;5.17;;;11.70;55.30;;;;;;20501;6840;283987;-72
2023/01/06 08:27:23;;;;;;;3.33;3.13;;;11.60;55.20;;;;;;20730;6840;117358;-74
2023/01/06 08:29:50;;;;;;;4.23;3.30;;;11.50;55.40;;;;;;20701;6840;119267;-72
2023/01/06 08:32:15;;;;;;;2.90;2.80;;;11.20;56.10;;;;;;20497;6840;307779;-72
2023/01/06 08:34:42;;;;;;;2.90;2.80;;;11.40;56.40;;;;;;20498;6840;281988;-73
2023/01/06 08:37:07;;;;;;;2.33;2.23;;;11.40;56.30;;;;;;20701;6840;117133;-73
2023/01/06 08:39:32;;;;;;;1.90;1.80;;;11.30;56.30;;;;;;20708;6840;117617;-71
2023/01/06 08:41:58;;;;;;;2.10;1.90;;;11.10;56.80;;;;;;20491;6840;307199;-72
2023/01/06 08:44:24;;;;;;;2.70;2.50;;;11.20;57.20;;;;;;20742;6840;117407;-70
2023/01/06 08:46:51;;;;;;;2.70;2.50;;;11.30;56.80;;;;;;20481;6840;339817;-68
2023/01/06 08:49:17;;;;;;;9.43;8.50;;;11.30;56.60;;;;;;20712;6840;117757;-70
2023/01/06 08:51:42;;;;;;;41.10;27.73;;;11.30;56.60;;;;;;20712;6840;117518;-70
2023/01/06 08:54:08;;;;;;;19.20;17.20;;;11.10;56.90;;;;;;20485;6840;296342;-70
2023/01/06 08:56:34;;;;;;;24.80;23.20;;;11.60;56.70;;;;;;20505;6840;337154;-70
2023/01/06 08:59:00;;;;;;;5.17;4.87;;;11.50;56.60;;;;;;20724;6840;118698;-69
2023/01/06 09:01:31;;;;;;;3.53;3.33;;;11.50;56.40;;;;;;20729;6840;117526;-70
2023/01/06 09:03:57;;;;;;;2.70;2.60;;;11.30;56.70;;;;;;20507;6840;307246;-70
2023/01/06 09:06:23;;;;;;;2.40;2.30;;;11.40;57.20;;;;;;20719;6840;117316;-70
2023/01/06 09:08:49;;;;;;;3.17;2.97;;;11.50;57.10;;;;;;20524;6840;296997;-69
2023/01/06 09:11:16;;;;;;;3.00;2.80;;;11.50;57.30;;;;;;20517;6840;345219;-70
2023/01/06 09:13:41;;;;;;;2.95;2.85;;;11.70;56.90;;;;;;20516;6840;278112;-69
2023/01/06 09:16:07;;;;;;;3.80;3.50;;;12.00;56.40;;;;;;20479;6840;340108;-71
2023/01/06 09:18:33;;;;;;;2.80;2.60;;;12.00;56.00;;;;;;20717;6840;118607;-70
2023/01/06 09:20:59;;;;;;;3.17;2.97;;;12.00;56.00;;;;;;20489;6840;312493;-70
2023/01/06 09:23:24;;;;;;;4.23;3.00;;;12.00;56.20;;;;;;20503;6840;279069;-72
2023/01/06 09:25:50;;;;;;;3.15;2.87;;;12.20;56.10;;;;;;20501;6840;279913;-71
2023/01/06 09:28:16;;;;;;;3.60;3.40;;;12.40;55.80;;;;;;20514;6840;307404;-71
2023/01/06 09:30:41;;;;;;;3.70;3.40;;;12.50;55.50;;;;;;20657;6838;117111;-70
2023/01/06 09:33:07;;;;;;;4.17;3.80;;;12.20;55.50;;;;;;20482;6839;298215;-73
2023/01/06 09:35:32;;;;;;;3.80;3.50;;;12.20;55.80;;;;;;20512;6840;311716;-73
2023/01/06 09:37:58;;;;;;;3.33;3.12;;;12.30;55.80;;;;;;20637;6840;122913;-71
2023/01/06 09:40:27;;;;;;;3.70;3.50;;;12.20;55.90;;;;;;20523;6840;281838;-70
2023/01/06 09:43:12;;;;;;;3.27;2.97;;;12.20;56.30;;;;;;20345;6840;308852;-69
2023/01/06 09:45:40;;;;;;;3.80;2.90;;;12.30;56.10;;;;;;20665;6840;117791;-73
2023/01/06 09:48:07;;;;;;;2.57;2.47;;;12.20;56.20;;;;;;20642;6840;121489;-70
2023/01/06 09:50:36;;;;;;;3.03;2.80;;;11.90;56.70;;;;;;20474;6840;336660;-70
2023/01/06 09:53:01;;;;;;;2.67;2.50;;;12.00;57.60;;;;;;20719;6840;119439;-71
2023/01/06 09:55:30;;;;;;;2.37;2.28;;;12.00;57.50;;;;;;20700;6840;117393;-71
2023/01/06 09:57:55;;;;;;;3.87;2.50;;;11.80;57.90;;;;;;20704;6840;119437;-71
2023/01/06 10:00:41;;;;;;;3.00;2.80;;;11.70;58.50;;;;;;20547;6840;277907;-71
2023/01/06 10:03:17;;;;;;;3.00;2.80;;;11.90;59.80;;;;;;20536;6840;307556;-71
2023/01/06 10:05:58;;;;;;;2.90;2.70;;;12.30;59.80;;;;;;20526;6840;278535;-71
2023/01/06 10:08:41;;;;;;;2.83;2.63;;;12.70;58.60;;;;;;20518;6840;308408;-71
2023/01/06 10:11:09;;;;;;;2.80;2.70;;;13.00;58.10;;;;;;20516;6840;308290;-71
2023/01/06 10:14:01;;;;;;;3.00;2.80;;;13.30;56.90;;;;;;20727;6840;118465;-71
2023/01/06 10:16:33;;;;;;;2.60;2.50;;;13.10;56.70;;;;;;20732;6840;117844;-70
2023/01/06 10:19:35;;;;;;;3.10;2.83;;;12.80;57.20;;;;;;20491;6840;278884;-70
2023/01/06 10:22:01;;;;;;;3.10;2.90;;;12.80;57.70;;;;;;20716;6840;118859;-72
2023/01/06 10:25:03;;;;;;;2.97;2.83;;;12.80;57.90;;;;;;20508;6840;309960;-71
2023/01/06 10:27:39;;;;;;;2.77;2.60;;;12.90;57.90;;;;;;20916;6722;117272;-71
2023/01/06 10:30:21;;;;;;;3.20;3.00;;;12.80;57.70;;;;;;20783;6702;279792;-71
2023/01/06 10:32:56;;;;;;;2.73;2.53;;;13.00;57.70;;;;;;20724;6755;302486;-70
2023/01/06 10:35:35;;;;;;;2.80;2.60;;;13.30;57.10;;;;;;21020;6702;118286;-70
2023/01/06 10:38:07;;;;;;;3.00;2.80;;;13.20;56.80;;;;;;20717;6702;278077;-71
2023/01/06 10:40:43;;;;;;;3.50;3.10;;;13.30;56.70;;;;;;20990;6713;117480;-71
2023/01/06 10:43:22;;;;;;;3.00;2.80;;;13.10;56.50;;;;;;20678;6737;281237;-71
2023/01/06 10:45:54;;;;;;;2.87;2.67;;;13.20;57.10;;;;;;20915;6742;120989;-71
2023/01/06 10:48:31;;;;;;;2.60;2.50;;;13.10;57.40;;;;;;20577;6745;278333;-71
2023/01/06 10:51:19;;;;;;;2.17;1.97;;;13.10;57.40;;;;;;20912;6729;118018;-70
2023/01/06 10:53:55;;;;;;;2.27;2.07;;;13.10;57.40;;;;;;20816;6791;119795;-71
2023/01/06 10:56:30;;;;;;;1.90;1.80;;;12.80;57.70;;;;;;20728;6723;334926;-71
2023/01/06 10:59:07;;;;;;;1.83;1.73;;;13.20;57.80;;;;;;20596;6722;277940;-71
2023/01/06 11:01:53;;;;;;;1.50;1.47;;;13.20;57.80;;;;;;20982;6712;117255;-71
2023/01/06 11:04:28;;;;;;;1.30;1.20;;;13.30;57.70;;;;;;20916;6741;117528;-71
2023/01/06 11:07:04;;;;;;;1.23;1.23;;;13.10;58.00;;;;;;20902;6779;116810;-71
2023/01/06 11:09:39;;;;;;;1.30;1.20;;;12.90;58.10;;;;;;20465;6770;297459;-70
2023/01/06 11:12:18;;;;;;;1.00;1.00;;;13.10;57.90;;;;;;20576;6769;277642;-71
2023/01/06 11:15:00;;;;;;;0.80;0.80;;;13.50;56.80;;;;;;20624;6759;306682;-70
2023/01/06 11:17:36;;;;;;;0.60;0.60;;;13.90;56.70;;;;;;20903;6730;117389;-71
2023/01/06 11:20:11;;;;;;;0.77;0.77;;;13.90;56.00;;;;;;20845;6747;118578;-71
2023/01/06 11:22:47;;;;;;;0.60;0.60;;;13.60;56.20;;;;;;20983;6713;117311;-71
2023/01/06 11:25:22;;;;;;;0.60;0.60;;;13.40;56.60;;;;;;20765;6713;337998;-71
2023/01/06 11:28:11;;;;;;;0.40;0.40;;;13.50;55.70;;;;;;20914;6713;140254;-71
2023/01/06 11:30:50;;;;;;;0.50;0.50;;;13.50;55.50;;;;;;20892;6745;120693;-71
2023/01/06 11:33:26;;;;;;;0.50;0.40;;;13.20;55.80;;;;;;20877;6740;120540;-71
2023/01/06 11:36:04;;;;;;;0.50;0.40;;;13.00;56.20;;;;;;20635;6749;276144;-72
2023/01/06 11:39:03;;;;;;;0.50;0.50;;;13.20;56.00;;;;;;20839;6733;118334;-71
2023/01/06 11:41:39;;;;;;;0.67;0.67;;;13.20;55.80;;;;;;20953;6716;116909;-71
2023/01/06 11:44:17;;;;;;;0.50;0.50;;;13.00;56.00;;;;;;20937;6716;119391;-71
2023/01/06 11:46:56;;;;;;;0.30;0.30;;;12.80;56.40;;;;;;20927;6723;116867;-71
2023/01/06 11:49:35;;;;;;;0.40;0.40;;;12.60;57.60;;;;;;20799;6727;117056;-71
2023/01/06 11:52:18;;;;;;;0.55;0.40;;;12.60;56.90;;;;;;20792;6698;304360;-72
2023/01/06 11:54:56;;;;;;;0.47;0.47;;;12.90;56.50;;;;;;20810;6698;303441;-71
2023/01/06 11:57:45;;;;;;;0.90;0.50;;;13.30;55.90;;;;;;20762;6706;308667;-72
2023/01/06 12:00:24;;;;;;;0.50;0.50;;;13.60;55.20;;;;;;20677;6736;304619;-71
2023/01/06 12:03:14;;;;;;;0.30;0.30;;;13.80;54.40;;;;;;20906;6736;117439;-72
2023/01/06 12:06:05;;;;;;;0.60;0.60;;;13.60;54.50;;;;;;20706;6726;299441;-71
2023/01/06 12:09:01;;;;;;;0.62;0.62;;;13.70;54.80;;;;;;20628;6726;337450;-71
2023/01/06 12:11:42;;;;;;;0.70;0.70;;;13.90;54.40;;;;;;20855;6741;118532;-71
2023/01/06 12:14:18;;;;;;;0.50;0.50;;;13.70;54.60;;;;;;20660;6741;276195;-71
2023/01/06 12:17:17;;;;;;;0.50;0.43;;;13.70;54.80;;;;;;20819;6770;118308;-71
2023/01/06 12:20:06;;;;;;;0.40;0.40;;;13.80;54.90;;;;;;20547;6769;306669;-71
2023/01/06 12:22:42;;;;;;;0.40;0.35;;;13.80;54.90;;;;;;20461;6796;306896;-71
2023/01/06 12:25:17;;;;;;;0.50;0.50;;;14.10;54.10;;;;;;20673;6738;279851;-70
2023/01/06 12:28:00;;;;;;;0.50;0.50;;;14.30;53.60;;;;;;20631;6738;306892;-70
2023/01/06 12:30:38;;;;;;;0.40;0.40;;;14.50;53.10;;;;;;20769;6707;305291;-71
2023/01/06 12:33:17;;;;;;;0.60;0.40;;;14.70;53.50;;;;;;20781;6707;304449;-71
2023/01/06 12:35:53;;;;;;;0.43;0.43;;;14.70;52.10;;;;;;20657;6763;305182;-71
2023/01/06 12:38:32;;;;;;;1.02;0.50;;;14.80;52.20;;;;;;20579;6736;338462;-71
2023/01/06 12:41:37;;;;;;;0.37;0.37;;;14.80;51.80;;;;;;20895;6736;118848;-71
2023/01/06 12:44:19;;;;;;;0.43;0.30;;;14.60;52.10;;;;;;20877;6736;117007;-71
2023/01/06 12:47:01;;;;;;;0.47;0.47;;;14.10;52.90;;;;;;20920;6725;118157;-71
2023/01/06 12:49:53;;;;;;;0.50;0.50;;;13.80;53.80;;;;;;20422;6856;340979;-71
2023/01/06 12:52:35;;;;;;;0.50;0.50;;;13.90;54.50;;;;;;20673;6738;305956;-71
2023/01/06 12:55:20;;;;;;;0.87;0.40;;;14.20;54.20;;;;;;20918;6737;117689;-71
2023/01/06 12:58:19;;;;;;;0.60;0.60;;;14.10;53.90;;;;;;20665;6723;282182;-71
2023/01/06 13:01:25;;;;;;;0.40;0.40;;;14.00;53.20;;;;;;20871;6741;116915;-70